sensor_id;sensor_type;location;lat;lon;timestamp;P1;durP1;ratioP1;P2;durP2;ratioP2
6828;SDS011;17930;48.592;8.868;2022-09-09T00:02:24;5.30;;;1.57;;
6828;SDS011;17930;48.592;8.868;2022-09-09T00:04:57;3.33;;;1.20;;
6828;SDS011;17930;48.592;8.868;2022-09-09T00:07:31;1.47;;;1.20;;
6828;SDS011;17930;48.592;8.868;2022-09-09T00:10:13;4.67;;;1.30;;
6828;SDS011;17930;48.592;8.868;2022-09-09T00:12:47;4.27;;;1.20;;
6828;SDS011;17930;48.592;8.868;2022-09-09T00:15:21;3.83;;;1.30;;
6828;SDS011;17930;48.592;8.868;2022-09-09T00:17:53;3.10;;;1.10;;
6828;SDS011;17930;48.592;8.868;2022-09-09T00:20:25;3.47;;;1.20;;
6828;SDS011;17930;48.592;8.868;2022-09-09T00:22:59;2.20;;;1.10;;
6828;SDS011;17930;48.592;8.868;2022-09-09T00:25:37;3.27;;;1.17;;
6828;SDS011;17930;48.592;8.868;2022-09-09T00:28:11;2.40;;;1.07;;
6828;SDS011;17930;48.592;8.868;2022-09-09T00:30:43;2.87;;;1.03;;
6828;SDS011;17930;48.592;8.868;2022-09-09T00:33:12;2.47;;;1.10;;
6828;SDS011;17930;48.592;8.868;2022-09-09T00:35:41;4.67;;;1.50;;
6828;SDS011;17930;48.592;8.868;2022-09-09T00:38:13;6.20;;;1.30;;
6828;SDS011;17930;48.592;8.868;2022-09-09T00:40:41;2.70;;;1.10;;
6828;SDS011;17930;48.592;8.868;2022-09-09T00:43:20;2.53;;;1.27;;
6828;SDS011;17930;48.592;8.868;2022-09-09T00:45:58;3.37;;;1.30;;
6828;SDS011;17930;48.592;8.868;2022-09-09T00:48:51;1.53;;;0.70;;
6828;SDS011;17930;48.592;8.868;2022-09-09T00:51:29;1.57;;;1.00;;
6828;SDS011;17930;48.592;8.868;2022-09-09T00:54:12;4.40;;;1.30;;
6828;SDS011;17930;48.592;8.868;2022-09-09T00:56:51;3.70;;;0.97;;
6828;SDS011;17930;48.592;8.868;2022-09-09T00:59:32;3.23;;;1.23;;
6828;SDS011;17930;48.592;8.868;2022-09-09T01:02:11;3.10;;;1.13;;
6828;SDS011;17930;48.592;8.868;2022-09-09T01:04:44;1.33;;;0.90;;
6828;SDS011;17930;48.592;8.868;2022-09-09T01:07:12;2.87;;;1.10;;
6828;SDS011;17930;48.592;8.868;2022-09-09T01:09:47;4.97;;;1.30;;
6828;SDS011;17930;48.592;8.868;2022-09-09T01:12:24;2.50;;;1.13;;
6828;SDS011;17930;48.592;8.868;2022-09-09T01:14:54;4.07;;;1.57;;
6828;SDS011;17930;48.592;8.868;2022-09-09T01:17:30;2.20;;;1.33;;
6828;SDS011;17930;48.592;8.868;2022-09-09T01:20:05;2.67;;;1.47;;
6828;SDS011;17930;48.592;8.868;2022-09-09T01:22:37;5.13;;;1.73;;
6828;SDS011;17930;48.592;8.868;2022-09-09T01:28:30;3.67;;;1.40;;
6828;SDS011;17930;48.592;8.868;2022-09-09T01:31:00;4.93;;;1.30;;
6828;SDS011;17930;48.592;8.868;2022-09-09T01:33:29;4.90;;;1.40;;
6828;SDS011;17930;48.592;8.868;2022-09-09T01:35:57;1.77;;;1.20;;
6828;SDS011;17930;48.592;8.868;2022-09-09T01:38:28;3.47;;;1.40;;
6828;SDS011;17930;48.592;8.868;2022-09-09T01:40:57;3.60;;;1.30;;
6828;SDS011;17930;48.592;8.868;2022-09-09T01:43:24;3.10;;;1.10;;
6828;SDS011;17930;48.592;8.868;2022-09-09T01:45:53;3.10;;;1.40;;
6828;SDS011;17930;48.592;8.868;2022-09-09T01:48:22;2.23;;;1.37;;
6828;SDS011;17930;48.592;8.868;2022-09-09T01:50:50;3.27;;;1.30;;
6828;SDS011;17930;48.592;8.868;2022-09-09T01:53:17;2.63;;;0.97;;
6828;SDS011;17930;48.592;8.868;2022-09-09T01:55:52;2.77;;;1.37;;
6828;SDS011;17930;48.592;8.868;2022-09-09T01:58:37;2.80;;;1.03;;
6828;SDS011;17930;48.592;8.868;2022-09-09T02:01:15;1.90;;;1.20;;
6828;SDS011;17930;48.592;8.868;2022-09-09T02:03:51;1.83;;;1.33;;
6828;SDS011;17930;48.592;8.868;2022-09-09T02:06:24;2.63;;;1.00;;
6828;SDS011;17930;48.592;8.868;2022-09-09T02:08:55;4.33;;;1.47;;
6828;SDS011;17930;48.592;8.868;2022-09-09T02:11:26;1.30;;;1.00;;
6828;SDS011;17930;48.592;8.868;2022-09-09T02:13:56;2.00;;;1.13;;
6828;SDS011;17930;48.592;8.868;2022-09-09T02:16:27;2.00;;;1.27;;
6828;SDS011;17930;48.592;8.868;2022-09-09T02:19:01;3.00;;;1.10;;
6828;SDS011;17930;48.592;8.868;2022-09-09T02:21:33;3.27;;;1.30;;
6828;SDS011;17930;48.592;8.868;2022-09-09T02:24:03;1.93;;;1.50;;
6828;SDS011;17930;48.592;8.868;2022-09-09T02:26:36;3.43;;;1.13;;
6828;SDS011;17930;48.592;8.868;2022-09-09T02:29:07;2.63;;;1.20;;
6828;SDS011;17930;48.592;8.868;2022-09-09T02:31:37;2.30;;;1.40;;
6828;SDS011;17930;48.592;8.868;2022-09-09T02:34:07;2.43;;;1.30;;
6828;SDS011;17930;48.592;8.868;2022-09-09T02:36:36;4.70;;;1.87;;
6828;SDS011;17930;48.592;8.868;2022-09-09T02:39:08;4.47;;;1.70;;
6828;SDS011;17930;48.592;8.868;2022-09-09T02:41:38;2.07;;;1.37;;
6828;SDS011;17930;48.592;8.868;2022-09-09T02:44:09;2.63;;;1.30;;
6828;SDS011;17930;48.592;8.868;2022-09-09T02:46:41;4.53;;;1.60;;
6828;SDS011;17930;48.592;8.868;2022-09-09T02:49:26;6.47;;;1.53;;
6828;SDS011;17930;48.592;8.868;2022-09-09T02:52:02;4.07;;;2.33;;
6828;SDS011;17930;48.592;8.868;2022-09-09T02:54:32;1.80;;;1.60;;
6828;SDS011;17930;48.592;8.868;2022-09-09T02:57:04;4.03;;;2.03;;
6828;SDS011;17930;48.592;8.868;2022-09-09T02:59:35;3.63;;;1.90;;
6828;SDS011;17930;48.592;8.868;2022-09-09T03:02:02;5.63;;;1.60;;
6828;SDS011;17930;48.592;8.868;2022-09-09T03:04:29;4.87;;;1.80;;
6828;SDS011;17930;48.592;8.868;2022-09-09T03:06:56;2.57;;;1.30;;
6828;SDS011;17930;48.592;8.868;2022-09-09T03:09:23;3.37;;;1.40;;
6828;SDS011;17930;48.592;8.868;2022-09-09T03:11:51;3.40;;;1.33;;
6828;SDS011;17930;48.592;8.868;2022-09-09T03:14:19;1.50;;;1.40;;
6828;SDS011;17930;48.592;8.868;2022-09-09T03:16:46;2.13;;;1.20;;
6828;SDS011;17930;48.592;8.868;2022-09-09T03:19:13;3.77;;;1.50;;
6828;SDS011;17930;48.592;8.868;2022-09-09T03:21:40;3.23;;;1.70;;
6828;SDS011;17930;48.592;8.868;2022-09-09T03:24:06;2.90;;;1.30;;
6828;SDS011;17930;48.592;8.868;2022-09-09T03:26:34;3.53;;;1.60;;
6828;SDS011;17930;48.592;8.868;2022-09-09T03:29:02;2.87;;;1.53;;
6828;SDS011;17930;48.592;8.868;2022-09-09T03:31:33;3.23;;;1.50;;
6828;SDS011;17930;48.592;8.868;2022-09-09T03:34:01;2.97;;;1.37;;
6828;SDS011;17930;48.592;8.868;2022-09-09T03:36:28;3.00;;;1.57;;
6828;SDS011;17930;48.592;8.868;2022-09-09T03:38:54;3.70;;;1.57;;
6828;SDS011;17930;48.592;8.868;2022-09-09T03:41:22;4.30;;;1.47;;
6828;SDS011;17930;48.592;8.868;2022-09-09T03:43:50;5.53;;;1.33;;
6828;SDS011;17930;48.592;8.868;2022-09-09T03:46:17;4.73;;;1.30;;
6828;SDS011;17930;48.592;8.868;2022-09-09T03:48:45;4.27;;;1.70;;
6828;SDS011;17930;48.592;8.868;2022-09-09T03:51:11;3.23;;;1.43;;
6828;SDS011;17930;48.592;8.868;2022-09-09T03:53:38;3.23;;;1.60;;
6828;SDS011;17930;48.592;8.868;2022-09-09T03:56:06;3.30;;;1.93;;
6828;SDS011;17930;48.592;8.868;2022-09-09T03:58:33;2.87;;;1.50;;
6828;SDS011;17930;48.592;8.868;2022-09-09T04:01:01;4.93;;;1.37;;
6828;SDS011;17930;48.592;8.868;2022-09-09T04:03:29;3.10;;;1.30;;
6828;SDS011;17930;48.592;8.868;2022-09-09T04:05:59;2.93;;;1.40;;
6828;SDS011;17930;48.592;8.868;2022-09-09T04:08:27;5.20;;;1.50;;
6828;SDS011;17930;48.592;8.868;2022-09-09T04:10:55;3.90;;;1.70;;
6828;SDS011;17930;48.592;8.868;2022-09-09T04:13:23;4.53;;;1.97;;
6828;SDS011;17930;48.592;8.868;2022-09-09T04:15:50;3.33;;;1.60;;
6828;SDS011;17930;48.592;8.868;2022-09-09T04:18:17;5.43;;;1.60;;
6828;SDS011;17930;48.592;8.868;2022-09-09T04:20:45;2.43;;;1.17;;
6828;SDS011;17930;48.592;8.868;2022-09-09T04:23:14;3.77;;;1.50;;
6828;SDS011;17930;48.592;8.868;2022-09-09T04:25:43;3.67;;;1.40;;
6828;SDS011;17930;48.592;8.868;2022-09-09T04:28:12;3.13;;;1.30;;
6828;SDS011;17930;48.592;8.868;2022-09-09T04:30:39;5.27;;;1.40;;
6828;SDS011;17930;48.592;8.868;2022-09-09T04:33:06;2.27;;;1.20;;
6828;SDS011;17930;48.592;8.868;2022-09-09T04:35:32;4.93;;;1.47;;
6828;SDS011;17930;48.592;8.868;2022-09-09T04:37:59;5.10;;;1.63;;
6828;SDS011;17930;48.592;8.868;2022-09-09T04:40:29;2.30;;;1.27;;
6828;SDS011;17930;48.592;8.868;2022-09-09T04:42:57;3.33;;;1.00;;
6828;SDS011;17930;48.592;8.868;2022-09-09T04:45:24;2.17;;;1.30;;
6828;SDS011;17930;48.592;8.868;2022-09-09T04:47:51;2.73;;;1.20;;
6828;SDS011;17930;48.592;8.868;2022-09-09T04:50:19;1.40;;;1.07;;
6828;SDS011;17930;48.592;8.868;2022-09-09T04:52:45;2.30;;;1.03;;
6828;SDS011;17930;48.592;8.868;2022-09-09T04:55:12;1.80;;;1.40;;
6828;SDS011;17930;48.592;8.868;2022-09-09T04:57:41;4.20;;;1.60;;
6828;SDS011;17930;48.592;8.868;2022-09-09T05:00:08;3.37;;;1.40;;
6828;SDS011;17930;48.592;8.868;2022-09-09T05:02:36;2.60;;;1.40;;
6828;SDS011;17930;48.592;8.868;2022-09-09T05:05:06;5.03;;;1.40;;
6828;SDS011;17930;48.592;8.868;2022-09-09T05:07:33;4.50;;;1.40;;
6828;SDS011;17930;48.592;8.868;2022-09-09T05:10:00;2.30;;;1.23;;
6828;SDS011;17930;48.592;8.868;2022-09-09T05:12:29;1.90;;;1.20;;
6828;SDS011;17930;48.592;8.868;2022-09-09T05:14:58;5.63;;;1.20;;
6828;SDS011;17930;48.592;8.868;2022-09-09T05:17:24;3.77;;;1.30;;
6828;SDS011;17930;48.592;8.868;2022-09-09T05:19:51;2.13;;;1.30;;
6828;SDS011;17930;48.592;8.868;2022-09-09T05:22:18;2.87;;;1.40;;
6828;SDS011;17930;48.592;8.868;2022-09-09T05:24:46;1.20;;;1.10;;
6828;SDS011;17930;48.592;8.868;2022-09-09T05:27:16;3.97;;;1.83;;
6828;SDS011;17930;48.592;8.868;2022-09-09T05:29:43;1.67;;;1.23;;
6828;SDS011;17930;48.592;8.868;2022-09-09T05:32:11;2.73;;;1.40;;
6828;SDS011;17930;48.592;8.868;2022-09-09T05:34:40;5.73;;;1.60;;
6828;SDS011;17930;48.592;8.868;2022-09-09T05:37:06;2.80;;;1.43;;
6828;SDS011;17930;48.592;8.868;2022-09-09T05:39:33;4.17;;;1.47;;
6828;SDS011;17930;48.592;8.868;2022-09-09T05:42:01;3.23;;;1.30;;
6828;SDS011;17930;48.592;8.868;2022-09-09T05:44:30;3.43;;;1.27;;
6828;SDS011;17930;48.592;8.868;2022-09-09T05:46:57;3.83;;;1.63;;
6828;SDS011;17930;48.592;8.868;2022-09-09T05:49:25;3.77;;;1.67;;
6828;SDS011;17930;48.592;8.868;2022-09-09T05:51:51;3.87;;;1.40;;
6828;SDS011;17930;48.592;8.868;2022-09-09T05:54:18;3.03;;;1.40;;
6828;SDS011;17930;48.592;8.868;2022-09-09T05:56:45;5.27;;;1.40;;
6828;SDS011;17930;48.592;8.868;2022-09-09T05:59:12;2.20;;;1.03;;
6828;SDS011;17930;48.592;8.868;2022-09-09T06:01:40;4.50;;;1.30;;
6828;SDS011;17930;48.592;8.868;2022-09-09T06:04:07;6.10;;;1.47;;
6828;SDS011;17930;48.592;8.868;2022-09-09T06:06:35;3.00;;;1.10;;
6828;SDS011;17930;48.592;8.868;2022-09-09T06:09:05;1.80;;;1.23;;
6828;SDS011;17930;48.592;8.868;2022-09-09T06:11:35;3.90;;;1.50;;
6828;SDS011;17930;48.592;8.868;2022-09-09T06:14:03;4.40;;;1.60;;
6828;SDS011;17930;48.592;8.868;2022-09-09T06:16:30;2.97;;;1.50;;
6828;SDS011;17930;48.592;8.868;2022-09-09T06:18:58;2.90;;;1.30;;
6828;SDS011;17930;48.592;8.868;2022-09-09T06:21:26;2.80;;;1.53;;
6828;SDS011;17930;48.592;8.868;2022-09-09T06:23:55;6.73;;;1.70;;
6828;SDS011;17930;48.592;8.868;2022-09-09T06:26:23;5.57;;;1.40;;
6828;SDS011;17930;48.592;8.868;2022-09-09T06:28:51;3.50;;;1.33;;
6828;SDS011;17930;48.592;8.868;2022-09-09T06:31:19;3.60;;;1.40;;
6828;SDS011;17930;48.592;8.868;2022-09-09T06:33:48;2.50;;;1.10;;
6828;SDS011;17930;48.592;8.868;2022-09-09T06:36:17;2.33;;;1.57;;
6828;SDS011;17930;48.592;8.868;2022-09-09T06:38:45;3.97;;;1.40;;
6828;SDS011;17930;48.592;8.868;2022-09-09T06:41:14;3.10;;;1.37;;
6828;SDS011;17930;48.592;8.868;2022-09-09T06:43:43;2.50;;;1.33;;
6828;SDS011;17930;48.592;8.868;2022-09-09T06:46:10;4.03;;;1.33;;
6828;SDS011;17930;48.592;8.868;2022-09-09T06:48:38;6.83;;;1.93;;
6828;SDS011;17930;48.592;8.868;2022-09-09T06:51:07;4.43;;;2.40;;
6828;SDS011;17930;48.592;8.868;2022-09-09T06:53:37;2.97;;;1.43;;
6828;SDS011;17930;48.592;8.868;2022-09-09T06:56:17;6.60;;;1.53;;
6828;SDS011;17930;48.592;8.868;2022-09-09T06:58:46;3.00;;;1.40;;
6828;SDS011;17930;48.592;8.868;2022-09-09T07:01:14;3.10;;;1.40;;
6828;SDS011;17930;48.592;8.868;2022-09-09T07:03:44;3.07;;;1.60;;
6828;SDS011;17930;48.592;8.868;2022-09-09T07:06:13;2.77;;;1.87;;
6828;SDS011;17930;48.592;8.868;2022-09-09T07:08:43;2.17;;;1.50;;
6828;SDS011;17930;48.592;8.868;2022-09-09T07:11:10;3.83;;;2.07;;
6828;SDS011;17930;48.592;8.868;2022-09-09T07:13:38;2.80;;;1.30;;
6828;SDS011;17930;48.592;8.868;2022-09-09T07:16:05;4.67;;;1.60;;
6828;SDS011;17930;48.592;8.868;2022-09-09T07:18:33;3.07;;;1.47;;
6828;SDS011;17930;48.592;8.868;2022-09-09T07:21:00;2.63;;;1.37;;
6828;SDS011;17930;48.592;8.868;2022-09-09T07:23:27;2.10;;;1.03;;
6828;SDS011;17930;48.592;8.868;2022-09-09T07:25:55;2.67;;;1.37;;
6828;SDS011;17930;48.592;8.868;2022-09-09T07:28:22;2.93;;;1.40;;
6828;SDS011;17930;48.592;8.868;2022-09-09T07:30:56;2.47;;;1.63;;
6828;SDS011;17930;48.592;8.868;2022-09-09T07:33:24;3.63;;;1.77;;
6828;SDS011;17930;48.592;8.868;2022-09-09T07:35:52;4.93;;;1.50;;
6828;SDS011;17930;48.592;8.868;2022-09-09T07:38:19;5.60;;;1.63;;
6828;SDS011;17930;48.592;8.868;2022-09-09T07:40:47;3.17;;;1.50;;
6828;SDS011;17930;48.592;8.868;2022-09-09T07:43:14;5.97;;;1.60;;
6828;SDS011;17930;48.592;8.868;2022-09-09T07:45:42;3.83;;;1.50;;
6828;SDS011;17930;48.592;8.868;2022-09-09T07:48:10;2.87;;;1.40;;
6828;SDS011;17930;48.592;8.868;2022-09-09T07:50:37;6.20;;;1.80;;
6828;SDS011;17930;48.592;8.868;2022-09-09T07:53:04;3.93;;;1.73;;
6828;SDS011;17930;48.592;8.868;2022-09-09T07:55:31;5.13;;;1.10;;
6828;SDS011;17930;48.592;8.868;2022-09-09T07:57:58;2.97;;;1.50;;
6828;SDS011;17930;48.592;8.868;2022-09-09T08:00:24;3.63;;;1.57;;
6828;SDS011;17930;48.592;8.868;2022-09-09T08:02:52;1.97;;;1.10;;
6828;SDS011;17930;48.592;8.868;2022-09-09T08:05:20;4.20;;;1.23;;
6828;SDS011;17930;48.592;8.868;2022-09-09T08:07:48;2.33;;;0.87;;
6828;SDS011;17930;48.592;8.868;2022-09-09T08:10:14;10.00;;;1.50;;
6828;SDS011;17930;48.592;8.868;2022-09-09T08:12:41;2.30;;;1.10;;
6828;SDS011;17930;48.592;8.868;2022-09-09T08:15:08;2.30;;;1.47;;
6828;SDS011;17930;48.592;8.868;2022-09-09T08:17:35;1.80;;;1.10;;
6828;SDS011;17930;48.592;8.868;2022-09-09T08:20:03;3.47;;;1.10;;
6828;SDS011;17930;48.592;8.868;2022-09-09T08:22:32;4.23;;;1.17;;
6828;SDS011;17930;48.592;8.868;2022-09-09T08:24:59;3.03;;;1.17;;
6828;SDS011;17930;48.592;8.868;2022-09-09T08:27:27;3.23;;;1.23;;
6828;SDS011;17930;48.592;8.868;2022-09-09T08:29:54;2.03;;;1.10;;
6828;SDS011;17930;48.592;8.868;2022-09-09T08:32:21;2.77;;;1.07;;
6828;SDS011;17930;48.592;8.868;2022-09-09T08:34:48;2.33;;;1.20;;
6828;SDS011;17930;48.592;8.868;2022-09-09T08:37:16;4.70;;;1.30;;
6828;SDS011;17930;48.592;8.868;2022-09-09T08:39:44;1.87;;;1.00;;
6828;SDS011;17930;48.592;8.868;2022-09-09T08:42:17;3.33;;;1.20;;
6828;SDS011;17930;48.592;8.868;2022-09-09T08:45:02;4.00;;;1.23;;
6828;SDS011;17930;48.592;8.868;2022-09-09T08:47:39;3.77;;;1.40;;
6828;SDS011;17930;48.592;8.868;2022-09-09T08:50:13;3.57;;;1.47;;
6828;SDS011;17930;48.592;8.868;2022-09-09T08:52:49;3.53;;;1.50;;
6828;SDS011;17930;48.592;8.868;2022-09-09T08:55:22;5.17;;;1.80;;
6828;SDS011;17930;48.592;8.868;2022-09-09T08:57:53;5.93;;;2.07;;
6828;SDS011;17930;48.592;8.868;2022-09-09T09:00:22;6.03;;;1.90;;
6828;SDS011;17930;48.592;8.868;2022-09-09T09:02:55;4.57;;;1.53;;
6828;SDS011;17930;48.592;8.868;2022-09-09T09:05:33;4.27;;;1.43;;
6828;SDS011;17930;48.592;8.868;2022-09-09T09:08:05;4.17;;;1.37;;
6828;SDS011;17930;48.592;8.868;2022-09-09T09:10:43;2.57;;;1.57;;
6828;SDS011;17930;48.592;8.868;2022-09-09T09:13:14;3.43;;;1.33;;
6828;SDS011;17930;48.592;8.868;2022-09-09T09:15:43;4.93;;;1.43;;
6828;SDS011;17930;48.592;8.868;2022-09-09T09:18:13;3.47;;;1.40;;
6828;SDS011;17930;48.592;8.868;2022-09-09T09:20:42;3.07;;;1.63;;
6828;SDS011;17930;48.592;8.868;2022-09-09T09:23:20;5.17;;;1.73;;
6828;SDS011;17930;48.592;8.868;2022-09-09T09:25:50;6.03;;;1.40;;
6828;SDS011;17930;48.592;8.868;2022-09-09T09:28:23;2.07;;;1.10;;
6828;SDS011;17930;48.592;8.868;2022-09-09T09:30:53;2.73;;;1.37;;
6828;SDS011;17930;48.592;8.868;2022-09-09T09:33:23;5.90;;;1.53;;
6828;SDS011;17930;48.592;8.868;2022-09-09T09:35:54;3.07;;;1.53;;
6828;SDS011;17930;48.592;8.868;2022-09-09T09:38:22;2.97;;;1.23;;
6828;SDS011;17930;48.592;8.868;2022-09-09T09:40:52;5.60;;;1.50;;
6828;SDS011;17930;48.592;8.868;2022-09-09T09:43:24;2.37;;;1.40;;
6828;SDS011;17930;48.592;8.868;2022-09-09T09:45:53;2.10;;;1.07;;
6828;SDS011;17930;48.592;8.868;2022-09-09T09:48:20;3.47;;;1.27;;
6828;SDS011;17930;48.592;8.868;2022-09-09T09:50:48;2.27;;;1.07;;
6828;SDS011;17930;48.592;8.868;2022-09-09T09:53:19;4.50;;;1.10;;
6828;SDS011;17930;48.592;8.868;2022-09-09T09:55:50;5.00;;;1.80;;
6828;SDS011;17930;48.592;8.868;2022-09-09T09:58:21;2.73;;;1.03;;
6828;SDS011;17930;48.592;8.868;2022-09-09T10:00:48;5.07;;;1.40;;
6828;SDS011;17930;48.592;8.868;2022-09-09T10:03:22;3.50;;;1.30;;
6828;SDS011;17930;48.592;8.868;2022-09-09T10:05:51;2.50;;;1.13;;
6828;SDS011;17930;48.592;8.868;2022-09-09T10:08:18;4.27;;;1.20;;
6828;SDS011;17930;48.592;8.868;2022-09-09T10:10:56;3.97;;;1.40;;
6828;SDS011;17930;48.592;8.868;2022-09-09T10:13:34;3.90;;;1.27;;
6828;SDS011;17930;48.592;8.868;2022-09-09T10:16:16;3.17;;;1.10;;
6828;SDS011;17930;48.592;8.868;2022-09-09T10:18:57;3.43;;;1.10;;
6828;SDS011;17930;48.592;8.868;2022-09-09T10:21:29;2.37;;;1.10;;
6828;SDS011;17930;48.592;8.868;2022-09-09T10:24:13;4.40;;;1.27;;
6828;SDS011;17930;48.592;8.868;2022-09-09T10:27:20;4.93;;;1.60;;
6828;SDS011;17930;48.592;8.868;2022-09-09T10:29:56;2.97;;;1.20;;
6828;SDS011;17930;48.592;8.868;2022-09-09T10:32:38;1.90;;;1.00;;
6828;SDS011;17930;48.592;8.868;2022-09-09T10:35:26;3.80;;;1.03;;
6828;SDS011;17930;48.592;8.868;2022-09-09T10:38:13;3.67;;;1.00;;
6828;SDS011;17930;48.592;8.868;2022-09-09T10:40:43;5.37;;;1.20;;
6828;SDS011;17930;48.592;8.868;2022-09-09T10:43:30;2.90;;;0.90;;
6828;SDS011;17930;48.592;8.868;2022-09-09T10:46:09;2.17;;;0.87;;
6828;SDS011;17930;48.592;8.868;2022-09-09T10:48:46;2.47;;;1.00;;
6828;SDS011;17930;48.592;8.868;2022-09-09T10:51:31;3.40;;;1.00;;
6828;SDS011;17930;48.592;8.868;2022-09-09T10:54:13;5.17;;;1.27;;
6828;SDS011;17930;48.592;8.868;2022-09-09T10:57:00;1.53;;;0.80;;
6828;SDS011;17930;48.592;8.868;2022-09-09T10:59:35;3.30;;;1.00;;
6828;SDS011;17930;48.592;8.868;2022-09-09T11:02:12;1.77;;;0.80;;
6828;SDS011;17930;48.592;8.868;2022-09-09T11:04:52;2.80;;;1.00;;
6828;SDS011;17930;48.592;8.868;2022-09-09T11:07:25;2.40;;;1.13;;
6828;SDS011;17930;48.592;8.868;2022-09-09T11:10:04;1.77;;;0.80;;
6828;SDS011;17930;48.592;8.868;2022-09-09T11:12:53;1.30;;;0.73;;
6828;SDS011;17930;48.592;8.868;2022-09-09T11:15:34;2.60;;;0.80;;
6828;SDS011;17930;48.592;8.868;2022-09-09T11:18:14;0.73;;;0.73;;
6828;SDS011;17930;48.592;8.868;2022-09-09T11:20:47;1.87;;;0.90;;
6828;SDS011;17930;48.592;8.868;2022-09-09T11:23:16;1.17;;;0.70;;
6828;SDS011;17930;48.592;8.868;2022-09-09T11:25:48;1.23;;;0.50;;
6828;SDS011;17930;48.592;8.868;2022-09-09T11:28:25;2.17;;;0.80;;
6828;SDS011;17930;48.592;8.868;2022-09-09T11:31:03;1.00;;;0.90;;
6828;SDS011;17930;48.592;8.868;2022-09-09T11:33:51;2.20;;;0.60;;
6828;SDS011;17930;48.592;8.868;2022-09-09T11:36:34;3.20;;;1.07;;
6828;SDS011;17930;48.592;8.868;2022-09-09T11:39:17;0.97;;;0.70;;
6828;SDS011;17930;48.592;8.868;2022-09-09T11:42:05;1.40;;;0.60;;
6828;SDS011;17930;48.592;8.868;2022-09-09T11:44:33;1.67;;;0.70;;
6828;SDS011;17930;48.592;8.868;2022-09-09T11:47:01;1.03;;;0.60;;
6828;SDS011;17930;48.592;8.868;2022-09-09T11:49:28;0.60;;;0.60;;
6828;SDS011;17930;48.592;8.868;2022-09-09T11:52:10;0.90;;;0.63;;
6828;SDS011;17930;48.592;8.868;2022-09-09T11:54:44;1.90;;;0.63;;
6828;SDS011;17930;48.592;8.868;2022-09-09T11:57:17;0.60;;;0.60;;
6828;SDS011;17930;48.592;8.868;2022-09-09T11:59:53;1.10;;;0.60;;
6828;SDS011;17930;48.592;8.868;2022-09-09T12:02:23;0.70;;;0.50;;
6828;SDS011;17930;48.592;8.868;2022-09-09T12:04:56;0.70;;;0.60;;
6828;SDS011;17930;48.592;8.868;2022-09-09T12:07:30;2.70;;;0.70;;
6828;SDS011;17930;48.592;8.868;2022-09-09T12:10:02;1.63;;;0.80;;
6828;SDS011;17930;48.592;8.868;2022-09-09T12:12:44;2.73;;;0.90;;
6828;SDS011;17930;48.592;8.868;2022-09-09T12:15:24;1.30;;;0.63;;
6828;SDS011;17930;48.592;8.868;2022-09-09T12:17:56;2.10;;;1.00;;
6828;SDS011;17930;48.592;8.868;2022-09-09T12:20:26;1.07;;;0.80;;
6828;SDS011;17930;48.592;8.868;2022-09-09T12:25:53;5.97;;;1.20;;
6828;SDS011;17930;48.592;8.868;2022-09-09T12:28:27;3.17;;;0.80;;
6828;SDS011;17930;48.592;8.868;2022-09-09T12:31:14;3.50;;;0.80;;
6828;SDS011;17930;48.592;8.868;2022-09-09T12:33:49;3.13;;;1.10;;
6828;SDS011;17930;48.592;8.868;2022-09-09T12:36:18;2.70;;;0.90;;
6828;SDS011;17930;48.592;8.868;2022-09-09T12:38:48;3.53;;;0.63;;
6828;SDS011;17930;48.592;8.868;2022-09-09T12:41:20;2.13;;;0.90;;
6828;SDS011;17930;48.592;8.868;2022-09-09T12:43:48;2.37;;;1.07;;
6828;SDS011;17930;48.592;8.868;2022-09-09T12:46:20;2.10;;;0.50;;
6828;SDS011;17930;48.592;8.868;2022-09-09T12:48:55;4.30;;;0.87;;
6828;SDS011;17930;48.592;8.868;2022-09-09T12:51:24;2.73;;;0.93;;
6828;SDS011;17930;48.592;8.868;2022-09-09T12:53:53;5.83;;;0.67;;
6828;SDS011;17930;48.592;8.868;2022-09-09T12:56:21;2.77;;;0.70;;
6828;SDS011;17930;48.592;8.868;2022-09-09T12:58:52;2.90;;;0.63;;
6828;SDS011;17930;48.592;8.868;2022-09-09T13:01:22;1.83;;;0.83;;
6828;SDS011;17930;48.592;8.868;2022-09-09T13:03:50;2.80;;;0.90;;
6828;SDS011;17930;48.592;8.868;2022-09-09T13:06:22;1.70;;;0.60;;
6828;SDS011;17930;48.592;8.868;2022-09-09T13:08:50;1.83;;;0.83;;
6828;SDS011;17930;48.592;8.868;2022-09-09T13:11:19;0.93;;;0.53;;
6828;SDS011;17930;48.592;8.868;2022-09-09T13:13:50;0.93;;;0.90;;
6828;SDS011;17930;48.592;8.868;2022-09-09T13:16:20;2.77;;;1.47;;
6828;SDS011;17930;48.592;8.868;2022-09-09T13:18:49;1.30;;;0.60;;
6828;SDS011;17930;48.592;8.868;2022-09-09T13:21:16;4.50;;;0.93;;
6828;SDS011;17930;48.592;8.868;2022-09-09T13:23:48;2.00;;;0.70;;
6828;SDS011;17930;48.592;8.868;2022-09-09T13:26:20;1.17;;;0.60;;
6828;SDS011;17930;48.592;8.868;2022-09-09T13:28:48;2.33;;;1.30;;
6828;SDS011;17930;48.592;8.868;2022-09-09T13:31:20;1.10;;;0.77;;
6828;SDS011;17930;48.592;8.868;2022-09-09T13:33:48;2.83;;;0.90;;
6828;SDS011;17930;48.592;8.868;2022-09-09T13:36:15;1.63;;;0.93;;
6828;SDS011;17930;48.592;8.868;2022-09-09T13:38:55;1.90;;;0.93;;
6828;SDS011;17930;48.592;8.868;2022-09-09T13:41:28;3.03;;;1.17;;
6828;SDS011;17930;48.592;8.868;2022-09-09T13:43:57;0.87;;;0.60;;
6828;SDS011;17930;48.592;8.868;2022-09-09T13:46:28;1.70;;;0.90;;
6828;SDS011;17930;48.592;8.868;2022-09-09T13:48:59;1.10;;;0.70;;
6828;SDS011;17930;48.592;8.868;2022-09-09T13:51:33;1.07;;;0.60;;
6828;SDS011;17930;48.592;8.868;2022-09-09T13:54:03;1.73;;;0.60;;
6828;SDS011;17930;48.592;8.868;2022-09-09T13:56:32;0.70;;;0.50;;
6828;SDS011;17930;48.592;8.868;2022-09-09T13:59:01;1.77;;;0.83;;
6828;SDS011;17930;48.592;8.868;2022-09-09T14:01:29;2.70;;;0.60;;
6828;SDS011;17930;48.592;8.868;2022-09-09T14:03:56;2.53;;;0.90;;
6828;SDS011;17930;48.592;8.868;2022-09-09T14:06:24;1.23;;;0.70;;
6828;SDS011;17930;48.592;8.868;2022-09-09T14:08:51;1.13;;;0.60;;
6828;SDS011;17930;48.592;8.868;2022-09-09T14:11:22;1.47;;;0.60;;
6828;SDS011;17930;48.592;8.868;2022-09-09T14:13:49;2.50;;;0.57;;
6828;SDS011;17930;48.592;8.868;2022-09-09T14:16:16;4.20;;;0.77;;
6828;SDS011;17930;48.592;8.868;2022-09-09T14:18:44;3.13;;;0.80;;
6828;SDS011;17930;48.592;8.868;2022-09-09T14:21:11;4.27;;;0.70;;
6828;SDS011;17930;48.592;8.868;2022-09-09T14:23:38;0.80;;;0.60;;
6828;SDS011;17930;48.592;8.868;2022-09-09T14:26:06;2.47;;;0.60;;
6828;SDS011;17930;48.592;8.868;2022-09-09T14:28:34;1.17;;;0.77;;
6828;SDS011;17930;48.592;8.868;2022-09-09T14:31:03;2.07;;;0.70;;
6828;SDS011;17930;48.592;8.868;2022-09-09T14:33:30;1.33;;;0.73;;
6828;SDS011;17930;48.592;8.868;2022-09-09T14:35:57;1.40;;;0.70;;
6828;SDS011;17930;48.592;8.868;2022-09-09T14:38:25;1.77;;;0.80;;
6828;SDS011;17930;48.592;8.868;2022-09-09T14:40:55;1.53;;;0.90;;
6828;SDS011;17930;48.592;8.868;2022-09-09T14:43:24;2.07;;;0.83;;
6828;SDS011;17930;48.592;8.868;2022-09-09T14:45:53;0.77;;;0.60;;
6828;SDS011;17930;48.592;8.868;2022-09-09T14:48:20;1.93;;;1.03;;
6828;SDS011;17930;48.592;8.868;2022-09-09T14:50:46;1.97;;;0.77;;
6828;SDS011;17930;48.592;8.868;2022-09-09T14:53:15;2.33;;;0.80;;
6828;SDS011;17930;48.592;8.868;2022-09-09T14:55:42;1.17;;;0.60;;
6828;SDS011;17930;48.592;8.868;2022-09-09T14:58:11;1.90;;;0.93;;
6828;SDS011;17930;48.592;8.868;2022-09-09T15:00:38;1.43;;;0.70;;
6828;SDS011;17930;48.592;8.868;2022-09-09T15:03:07;2.27;;;0.60;;
6828;SDS011;17930;48.592;8.868;2022-09-09T15:05:35;1.90;;;0.63;;
6828;SDS011;17930;48.592;8.868;2022-09-09T15:08:02;1.63;;;0.70;;
6828;SDS011;17930;48.592;8.868;2022-09-09T15:10:29;2.30;;;0.97;;
6828;SDS011;17930;48.592;8.868;2022-09-09T15:12:56;2.73;;;0.70;;
6828;SDS011;17930;48.592;8.868;2022-09-09T15:15:23;3.00;;;0.80;;
6828;SDS011;17930;48.592;8.868;2022-09-09T15:17:50;1.63;;;0.70;;
6828;SDS011;17930;48.592;8.868;2022-09-09T15:20:18;1.13;;;0.73;;
6828;SDS011;17930;48.592;8.868;2022-09-09T15:22:44;2.10;;;0.80;;
6828;SDS011;17930;48.592;8.868;2022-09-09T15:25:11;1.00;;;0.77;;
6828;SDS011;17930;48.592;8.868;2022-09-09T15:27:38;3.43;;;0.77;;
6828;SDS011;17930;48.592;8.868;2022-09-09T15:30:06;3.20;;;0.90;;